createdAt,value
2019-04-22T00:00:34.025Z,1012.04
2019-04-22T00:01:31.192Z,1012.04
2019-04-22T00:02:28.514Z,1012.02
2019-04-22T00:03:33.956Z,1012.03
2019-04-22T00:04:39.293Z,1012.01
2019-04-22T00:05:50.736Z,1012.08
2019-04-22T00:06:50.057Z,1012.02
2019-04-22T00:07:48.745Z,1012.05
2019-04-22T00:08:56.852Z,1012.02
2019-04-22T00:09:51.531Z,1012.07
2019-04-22T00:10:56.056Z,1012.05
2019-04-22T00:11:54.350Z,1012.05
2019-04-22T00:12:52.909Z,1012.06
2019-04-22T00:13:51.926Z,1011.99
2019-04-22T00:14:48.255Z,1012.00
2019-04-22T00:15:53.894Z,1011.99
2019-04-22T00:16:56.674Z,1012.05
2019-04-22T00:20:03.063Z,1012.04
2019-04-22T00:20:50.457Z,1011.99
2019-04-22T00:21:55.124Z,1012.04
2019-04-22T00:22:51.969Z,1011.97
2019-04-22T00:23:56.781Z,1011.92
2019-04-22T00:24:51.242Z,1011.92
2019-04-22T00:25:59.727Z,1011.96
2019-04-22T00:26:58.789Z,1011.91
2019-04-22T00:27:59.067Z,1011.98
2019-04-22T00:30:54.829Z,1011.89
2019-04-22T00:31:52.875Z,1011.82
2019-04-22T00:32:49.996Z,1011.88
2019-04-22T00:33:51.718Z,1011.89
2019-04-22T00:34:48.834Z,1011.88
2019-04-22T00:35:53.148Z,1011.85
2019-04-22T00:36:52.359Z,1011.89
2019-04-22T00:37:56.759Z,1011.90
2019-04-22T00:38:56.268Z,1011.83
2019-04-22T00:39:51.825Z,1011.84
2019-04-22T00:40:52.224Z,1011.94
2019-04-22T00:41:57.196Z,1011.86
2019-04-22T00:42:55.438Z,1011.89
2019-04-22T00:43:59.695Z,1011.86
2019-04-22T00:44:55.872Z,1011.83
2019-04-22T00:45:53.975Z,1011.82
2019-04-22T00:46:52.556Z,1011.80
2019-04-22T00:47:53.049Z,1011.85
2019-04-22T00:49:33.153Z,1011.86
2019-04-22T00:50:58.381Z,1011.86
2019-04-22T00:51:58.313Z,1011.86
2019-04-22T00:52:55.871Z,1011.92
2019-04-22T00:54:12.310Z,1011.87
2019-04-22T00:54:58.903Z,1011.85
2019-04-22T00:55:54.345Z,1011.85
2019-04-22T00:56:48.115Z,1011.87
2019-04-22T00:57:56.205Z,1011.92
2019-04-22T00:59:06.010Z,1011.86
2019-04-22T00:59:52.270Z,1011.86
2019-04-22T01:01:00.229Z,1011.85
2019-04-22T01:01:54.346Z,1011.81
2019-04-22T01:02:54.352Z,1011.79
2019-04-22T01:03:59.060Z,1011.80
2019-04-22T01:04:56.069Z,1011.81
2019-04-22T01:05:57.102Z,1011.81
2019-04-22T01:06:51.272Z,1011.77
2019-04-22T01:07:49.191Z,1011.81
2019-04-22T01:09:55.834Z,1011.75
2019-04-22T01:10:57.014Z,1011.75
2019-04-22T01:11:56.311Z,1011.71
2019-04-22T01:12:51.216Z,1011.73
2019-04-22T01:13:50.034Z,1011.71
2019-04-22T01:14:53.811Z,1011.63
2019-04-22T01:16:03.207Z,1011.68
2019-04-22T01:16:57.823Z,1011.69
2019-04-22T01:17:53.002Z,1011.74
2019-04-22T01:18:49.080Z,1011.72
2019-04-22T01:21:06.947Z,1011.71
2019-04-22T01:21:54.564Z,1011.66
2019-04-22T01:22:46.068Z,1011.68
2019-04-22T01:23:48.674Z,1011.65
2019-04-22T01:24:50.274Z,1011.66
2019-04-22T01:25:41.045Z,1011.70
2019-04-22T01:26:43.506Z,1011.67
2019-04-22T01:27:46.340Z,1011.63
2019-04-22T01:28:39.650Z,1011.54
2019-04-22T01:29:44.094Z,1011.63
2019-04-22T01:30:34.985Z,1011.59
2019-04-22T01:31:31.450Z,1011.70
2019-04-22T01:32:33.751Z,1011.68
2019-04-22T01:33:35.278Z,1011.64
2019-04-22T01:34:40.441Z,1011.63
2019-04-22T01:35:38.641Z,1011.63
2019-04-22T01:36:48.657Z,1011.62
2019-04-22T01:37:46.107Z,1011.64
2019-04-22T01:38:56.343Z,1011.67
2019-04-22T01:39:50.061Z,1011.62
2019-04-22T01:40:54.152Z,1011.58
2019-04-22T01:41:59.881Z,1011.61
2019-04-22T01:43:00.397Z,1011.66
2019-04-22T01:43:58.715Z,1011.60
2019-04-22T01:44:50.989Z,1011.58
2019-04-22T01:45:54.693Z,1011.55
2019-04-22T01:46:49.405Z,1011.59
2019-04-22T01:47:49.045Z,1011.55
2019-04-22T01:48:56.816Z,1011.55
2019-04-22T01:49:57.894Z,1011.57
2019-04-22T01:50:50.089Z,1011.55
2019-04-22T01:52:01.554Z,1011.59
2019-04-22T01:53:08.625Z,1011.55
2019-04-22T01:54:00.460Z,1011.54
2019-04-22T01:55:14.055Z,1011.53
2019-04-22T01:55:55.434Z,1011.56
2019-04-22T01:56:53.862Z,1011.46
2019-04-22T01:57:47.587Z,1011.47
2019-04-22T01:58:48.232Z,1011.51
2019-04-22T01:59:46.238Z,1011.49
2019-04-22T02:00:53.639Z,1011.55
2019-04-22T02:02:50.830Z,1011.49
2019-04-22T02:03:57.882Z,1011.47
2019-04-22T02:04:53.254Z,1011.51
2019-04-22T02:05:53.644Z,1011.46
2019-04-22T02:07:50.283Z,1011.45
2019-04-22T02:09:53.687Z,1011.43
2019-04-22T02:10:54.633Z,1011.41
2019-04-22T02:11:57.202Z,1011.44
2019-04-22T02:12:53.313Z,1011.39
2019-04-22T02:13:56.729Z,1011.42
2019-04-22T02:14:52.250Z,1011.46
2019-04-22T02:15:52.513Z,1011.39
2019-04-22T02:16:56.223Z,1011.40
2019-04-22T02:17:59.305Z,1011.37
2019-04-22T02:18:53.206Z,1011.39
2019-04-22T02:20:48.863Z,1011.37
2019-04-22T02:21:48.569Z,1011.32
2019-04-22T02:23:17.626Z,1011.40
2019-04-22T02:24:02.373Z,1011.34
2019-04-22T02:24:53.297Z,1011.37
2019-04-22T02:25:58.001Z,1011.40
2019-04-22T02:26:48.231Z,1011.38
2019-04-22T02:27:55.505Z,1011.38
2019-04-22T02:28:52.026Z,1011.31
2019-04-22T02:31:18.067Z,1011.41
2019-04-22T02:32:02.288Z,1011.40
2019-04-22T02:33:15.507Z,1011.36
2019-04-22T02:34:12.004Z,1011.36
2019-04-22T02:35:03.436Z,1011.38
2019-04-22T02:37:54.818Z,1011.39
2019-04-22T02:39:57.644Z,1011.33
2019-04-22T02:41:55.088Z,1011.32
2019-04-22T02:43:01.359Z,1011.23
2019-04-22T02:44:53.598Z,1011.30
2019-04-22T02:46:15.682Z,1011.28
2019-04-22T02:47:10.003Z,1011.30
2019-04-22T02:47:59.281Z,1011.26
2019-04-22T02:49:04.069Z,1011.31
2019-04-22T02:49:53.377Z,1011.31
2019-04-22T02:51:06.244Z,1011.29
2019-04-22T02:51:52.132Z,1011.28
2019-04-22T02:52:50.551Z,1011.31
2019-04-22T02:56:09.269Z,1011.30
2019-04-22T02:56:53.019Z,1011.25
2019-04-22T02:58:12.575Z,1011.26
2019-04-22T02:59:03.835Z,1011.26
2019-04-22T03:00:06.384Z,1011.25
2019-04-22T03:05:07.389Z,1011.18
2019-04-22T03:06:05.751Z,1011.19
2019-04-22T03:06:46.069Z,1011.23
2019-04-22T03:07:58.578Z,1011.16
2019-04-22T03:09:13.909Z,1011.16
2019-04-22T03:09:57.710Z,1011.20
2019-04-22T03:12:02.614Z,1011.22
2019-04-22T03:12:54.163Z,1011.18
2019-04-22T03:15:09.618Z,1011.21
2019-04-22T03:16:54.970Z,1011.23
2019-04-22T03:20:02.040Z,1011.25
2019-04-22T03:20:58.250Z,1011.13
2019-04-22T03:21:54.630Z,1011.21
2019-04-22T03:23:13.691Z,1011.23
2019-04-22T03:24:08.883Z,1011.20
2019-04-22T03:25:24.190Z,1011.22
2019-04-22T03:26:12.368Z,1011.20
2019-04-22T03:27:00.715Z,1011.29
2019-04-22T03:28:12.068Z,1011.15
2019-04-22T03:30:18.848Z,1011.22
2019-04-22T03:34:38.286Z,1011.26
2019-04-22T03:36:06.747Z,1011.22
2019-04-22T03:37:56.329Z,1011.21
2019-04-22T03:40:05.694Z,1011.14
2019-04-22T03:42:05.745Z,1011.19
2019-04-22T03:43:08.468Z,1011.15
2019-04-22T03:44:10.234Z,1011.15
2019-04-22T03:45:00.560Z,1011.15
2019-04-22T03:45:58.818Z,1011.06
2019-04-22T03:49:14.794Z,1011.10
2019-04-22T03:50:58.520Z,1011.08
2019-04-22T03:52:05.823Z,1011.09
2019-04-22T03:53:05.866Z,1011.07
2019-04-22T03:54:19.121Z,1011.10
2019-04-22T03:55:07.369Z,1011.04
2019-04-22T03:56:10.350Z,1010.97
2019-04-22T03:57:56.099Z,1011.04
2019-04-22T04:00:03.923Z,1010.96
2019-04-22T04:00:55.542Z,1010.94
2019-04-22T04:04:19.146Z,1010.95
2019-04-22T04:04:49.466Z,1010.98
2019-04-22T04:07:20.554Z,1011.00
2019-04-22T04:09:04.596Z,1010.92
2019-04-22T04:10:01.078Z,1010.90
2019-04-22T04:11:15.208Z,1010.94
2019-04-22T04:11:59.365Z,1010.94
2019-04-22T04:14:05.162Z,1010.93
2019-04-22T04:15:05.458Z,1010.94
2019-04-22T04:15:53.533Z,1010.95
2019-04-22T04:17:08.876Z,1010.99
2019-04-22T04:19:13.834Z,1011.03
2019-04-22T04:22:00.720Z,1011.00
2019-04-22T04:25:57.418Z,1011.00
2019-04-22T04:27:07.633Z,1010.98
2019-04-22T04:28:27.108Z,1010.93
2019-04-22T04:29:06.314Z,1010.97
2019-04-22T04:31:09.585Z,1010.98
2019-04-22T04:32:06.315Z,1010.96
2019-04-22T04:33:00.361Z,1010.94
2019-04-22T04:33:54.170Z,1011.00
2019-04-22T04:36:03.358Z,1011.02
2019-04-22T04:40:08.006Z,1011.02
2019-04-22T04:41:03.707Z,1011.01
2019-04-22T04:42:04.748Z,1011.02
2019-04-22T04:43:07.330Z,1011.07
2019-04-22T04:44:03.720Z,1011.02
2019-04-22T04:45:54.710Z,1011.09
2019-04-22T04:46:58.744Z,1011.09
2019-04-22T04:49:57.397Z,1011.13
2019-04-22T04:51:11.307Z,1011.08
2019-04-22T04:51:55.624Z,1011.07
2019-04-22T04:53:14.557Z,1011.08
2019-04-22T04:54:05.639Z,1011.13
2019-04-22T04:55:11.879Z,1011.04
2019-04-22T04:55:53.179Z,1011.14
2019-04-22T04:58:04.547Z,1011.11
2019-04-22T04:59:05.667Z,1011.10
2019-04-22T05:01:52.056Z,1011.16
2019-04-22T05:04:14.712Z,1011.15
2019-04-22T05:05:06.290Z,1011.11
2019-04-22T05:05:57.104Z,1011.11
2019-04-22T05:07:56.038Z,1011.10
2019-04-22T05:10:00.596Z,1011.11
2019-04-22T05:12:01.930Z,1011.12
2019-04-22T05:12:57.370Z,1011.12
2019-04-22T05:13:57.390Z,1011.10
2019-04-22T05:15:00.329Z,1011.10
2019-04-22T05:16:10.684Z,1011.13
2019-04-22T05:16:54.639Z,1011.13
2019-04-22T05:17:58.104Z,1011.12
2019-04-22T05:19:56.624Z,1011.11
2019-04-22T05:21:53.292Z,1011.08
2019-04-22T05:23:55.960Z,1011.08
2019-04-22T05:24:56.271Z,1011.15
2019-04-22T05:25:48.873Z,1011.14
2019-04-22T05:28:55.243Z,1011.12
2019-04-22T05:30:08.832Z,1011.11
2019-04-22T05:30:47.104Z,1011.20
2019-04-22T05:31:51.720Z,1011.19
2019-04-22T05:32:52.158Z,1011.17
2019-04-22T05:33:48.240Z,1011.16
2019-04-22T05:34:48.824Z,1011.14
2019-04-22T05:35:49.385Z,1011.19
2019-04-22T05:38:56.525Z,1011.11
2019-04-22T05:39:52.678Z,1011.17
2019-04-22T05:40:52.877Z,1011.20
2019-04-22T05:41:48.717Z,1011.16
2019-04-22T05:42:52.840Z,1011.23
2019-04-22T05:43:50.306Z,1011.17
2019-04-22T05:44:49.654Z,1011.15
2019-04-22T05:45:51.182Z,1011.22
2019-04-22T05:46:49.803Z,1011.27
2019-04-22T05:47:52.033Z,1011.17
2019-04-22T05:48:56.635Z,1011.19
2019-04-22T05:49:47.842Z,1011.20
2019-04-22T05:50:54.038Z,1011.24
2019-04-22T05:51:48.500Z,1011.22
2019-04-22T05:52:49.794Z,1011.27
2019-04-22T05:53:48.327Z,1011.24
2019-04-22T05:54:50.484Z,1011.34
2019-04-22T05:55:51.775Z,1011.32
2019-04-22T05:57:04.002Z,1011.27
2019-04-22T05:57:51.249Z,1011.26
2019-04-22T05:58:53.594Z,1011.32
2019-04-22T05:59:57.294Z,1011.28
2019-04-22T06:01:13.181Z,1011.31
2019-04-22T06:02:06.492Z,1011.31
2019-04-22T06:02:52.917Z,1011.28
2019-04-22T06:03:50.995Z,1011.35
2019-04-22T06:04:53.161Z,1011.26
2019-04-22T06:05:47.229Z,1011.35
2019-04-22T06:06:51.747Z,1011.29
2019-04-22T06:07:49.024Z,1011.42
2019-04-22T06:08:55.295Z,1011.34
2019-04-22T06:09:52.981Z,1011.36
2019-04-22T06:10:55.892Z,1011.38
2019-04-22T06:11:36.060Z,1011.45
2019-04-22T06:12:46.569Z,1011.38
2019-04-22T06:13:45.330Z,1011.38
2019-04-22T06:14:49.240Z,1011.42
2019-04-22T06:15:49.172Z,1011.37
2019-04-22T06:16:50.399Z,1011.40
2019-04-22T06:17:58.942Z,1011.42
2019-04-22T06:18:52.723Z,1011.35
2019-04-22T06:19:51.206Z,1011.40
2019-04-22T06:20:56.908Z,1011.42
2019-04-22T06:22:09.650Z,1011.38
2019-04-22T06:22:50.820Z,1011.43
2019-04-22T06:23:54.626Z,1011.31
2019-04-22T06:24:52.046Z,1011.36
2019-04-22T06:26:09.947Z,1011.34
2019-04-22T06:27:01.663Z,1011.37
2019-04-22T06:28:00.221Z,1011.33
2019-04-22T06:28:51.580Z,1011.28
2019-04-22T06:29:46.347Z,1011.28
2019-04-22T06:30:53.480Z,1011.21
2019-04-22T06:32:10.206Z,1011.26
2019-04-22T06:32:47.010Z,1011.21
2019-04-22T06:33:54.708Z,1011.17
2019-04-22T06:34:48.612Z,1011.18
2019-04-22T06:35:48.664Z,1011.20
2019-04-22T06:36:55.449Z,1011.26
2019-04-22T06:38:09.951Z,1011.15
2019-04-22T06:39:44.788Z,1011.28
2019-04-22T06:40:55.388Z,1011.24
2019-04-22T06:41:53.432Z,1011.26
2019-04-22T06:42:52.679Z,1011.13
2019-04-22T06:43:56.314Z,1011.24
2019-04-22T06:44:51.583Z,1011.20
2019-04-22T06:45:45.036Z,1011.17
2019-04-22T06:48:49.137Z,1011.27
2019-04-22T06:49:48.274Z,1011.22
2019-04-22T06:50:47.569Z,1011.30
2019-04-22T06:52:08.017Z,1011.29
2019-04-22T06:52:55.200Z,1011.25
2019-04-22T06:53:48.011Z,1011.30
2019-04-22T06:54:52.539Z,1011.25
2019-04-22T06:55:45.643Z,1011.23
2019-04-22T06:56:53.400Z,1011.35
2019-04-22T06:57:45.028Z,1011.32
2019-04-22T06:58:51.037Z,1011.30
2019-04-22T06:59:52.015Z,1011.37
2019-04-22T07:00:44.502Z,1011.36
2019-04-22T07:01:52.512Z,1011.42
2019-04-22T07:03:10.270Z,1011.39
2019-04-22T07:04:53.835Z,1011.44
2019-04-22T07:05:49.502Z,1011.45
2019-04-22T07:07:52.195Z,1011.40
2019-04-22T07:09:46.592Z,1011.49
2019-04-22T07:10:49.110Z,1011.58
2019-04-22T07:11:48.307Z,1011.47
2019-04-22T07:12:49.829Z,1011.53
2019-04-22T07:13:51.773Z,1011.47
2019-04-22T07:14:48.893Z,1011.51
2019-04-22T07:15:50.381Z,1011.50
2019-04-22T07:16:51.232Z,1011.50
2019-04-22T07:17:50.542Z,1011.48
2019-04-22T07:18:49.838Z,1011.49
2019-04-22T07:19:43.762Z,1011.49
2019-04-22T07:20:51.259Z,1011.48
2019-04-22T07:21:52.393Z,1011.45
2019-04-22T07:22:45.457Z,1011.49
2019-04-22T07:23:53.095Z,1011.60
2019-04-22T07:25:46.141Z,1011.54
2019-04-22T07:26:45.052Z,1011.45
2019-04-22T07:27:50.558Z,1011.51
2019-04-22T07:28:43.796Z,1011.44
2019-04-22T07:29:55.676Z,1011.53
2019-04-22T07:30:48.100Z,1011.44
2019-04-22T07:31:50.499Z,1011.49
2019-04-22T07:33:05.040Z,1011.54
2019-04-22T07:33:51.784Z,1011.48
2019-04-22T07:35:54.925Z,1011.50
2019-04-22T07:36:54.865Z,1011.53
2019-04-22T07:38:05.874Z,1011.49
2019-04-22T07:38:42.563Z,1011.51
2019-04-22T07:39:45.789Z,1011.46
2019-04-22T07:41:51.391Z,1011.45
2019-04-22T07:42:50.412Z,1011.51
2019-04-22T07:44:12.021Z,1011.45
2019-04-22T07:44:51.021Z,1011.45
2019-04-22T07:45:49.155Z,1011.54
2019-04-22T07:47:53.836Z,1011.59
2019-04-22T07:51:50.164Z,1011.46
2019-04-22T07:52:45.026Z,1011.49
2019-04-22T07:53:48.475Z,1011.52
2019-04-22T07:54:46.894Z,1011.46
2019-04-22T07:55:49.024Z,1011.55
2019-04-22T07:56:53.849Z,1011.52
2019-04-22T07:57:44.512Z,1011.56
2019-04-22T07:58:48.954Z,1011.57
2019-04-22T07:59:49.454Z,1011.56
2019-04-22T08:00:53.339Z,1011.56
2019-04-22T08:02:01.999Z,1011.59
2019-04-22T08:02:51.730Z,1011.55
2019-04-22T08:04:07.252Z,1011.50
2019-04-22T08:05:01.390Z,1011.52
2019-04-22T08:05:58.770Z,1011.51
2019-04-22T08:06:52.809Z,1011.54
2019-04-22T08:07:54.184Z,1011.55
2019-04-22T08:08:45.130Z,1011.59
2019-04-22T08:09:51.018Z,1011.55
2019-04-22T08:10:49.992Z,1011.50
2019-04-22T08:11:51.253Z,1011.48
2019-04-22T08:13:46.959Z,1011.52
2019-04-22T08:14:47.867Z,1011.52
2019-04-22T08:16:49.386Z,1011.54
2019-04-22T08:18:00.263Z,1011.63
2019-04-22T08:18:47.280Z,1011.67
2019-04-22T08:19:51.527Z,1011.54
2019-04-22T08:20:52.075Z,1011.56
2019-04-22T08:21:50.915Z,1011.53
2019-04-22T08:22:56.082Z,1011.48
2019-04-22T08:23:50.825Z,1011.62
2019-04-22T08:24:47.192Z,1011.55
2019-04-22T08:25:47.598Z,1011.55
2019-04-22T08:26:51.339Z,1011.57
2019-04-22T08:27:51.897Z,1011.61
2019-04-22T08:29:52.233Z,1011.65
2019-04-22T08:30:47.449Z,1011.54
2019-04-22T08:31:50.611Z,1011.56
2019-04-22T08:32:49.294Z,1011.57
2019-04-22T08:33:52.450Z,1011.63
2019-04-22T08:34:44.019Z,1011.64
2019-04-22T08:36:00.855Z,1011.54
2019-04-22T08:37:50.759Z,1011.62
2019-04-22T08:38:54.259Z,1011.56
2019-04-22T08:40:07.722Z,1011.58
2019-04-22T08:40:53.833Z,1011.66
2019-04-22T08:44:00.970Z,1011.56
2019-04-22T08:45:06.236Z,1011.55
2019-04-22T08:46:57.859Z,1011.55
2019-04-22T08:48:01.794Z,1011.58
2019-04-22T08:49:02.259Z,1011.51
2019-04-22T08:49:56.976Z,1011.57
2019-04-22T08:50:44.668Z,1011.59
2019-04-22T08:51:45.857Z,1011.67
2019-04-22T08:52:52.488Z,1011.59
2019-04-22T08:53:56.190Z,1011.68
2019-04-22T08:54:50.577Z,1011.69
2019-04-22T08:56:01.871Z,1011.64
2019-04-22T08:58:52.323Z,1011.66
2019-04-22T08:59:48.642Z,1011.67
2019-04-22T09:00:49.963Z,1011.70
2019-04-22T09:01:45.023Z,1011.68
2019-04-22T09:02:46.735Z,1011.76
2019-04-22T09:03:46.998Z,1011.70
2019-04-22T09:04:42.112Z,1011.78
2019-04-22T09:05:57.325Z,1011.71
2019-04-22T09:07:48.972Z,1011.64
2019-04-22T09:08:50.501Z,1011.68
2019-04-22T09:09:53.342Z,1011.69
2019-04-22T09:10:51.795Z,1011.76
2019-04-22T09:11:46.934Z,1011.59
2019-04-22T09:12:57.611Z,1011.73
2019-04-22T09:13:49.821Z,1011.68
2019-04-22T09:14:45.829Z,1011.73
2019-04-22T09:15:55.402Z,1011.71
2019-04-22T09:16:48.256Z,1011.71
2019-04-22T09:17:50.913Z,1011.62
2019-04-22T09:18:48.658Z,1011.81
2019-04-22T09:19:48.124Z,1011.66
2019-04-22T09:20:48.632Z,1011.71
2019-04-22T09:21:54.535Z,1011.70
2019-04-22T09:22:48.407Z,1011.81
2019-04-22T09:23:52.442Z,1011.78
2019-04-22T09:24:46.963Z,1011.72
2019-04-22T09:25:51.077Z,1011.79
2019-04-22T09:26:47.669Z,1011.63
2019-04-22T09:28:54.506Z,1011.65
2019-04-22T09:29:42.958Z,1011.61
2019-04-22T09:30:47.101Z,1011.66
2019-04-22T09:31:56.613Z,1011.66
2019-04-22T09:32:55.760Z,1011.62
2019-04-22T09:33:43.230Z,1011.66
2019-04-22T09:34:47.401Z,1011.63
2019-04-22T09:35:52.000Z,1011.71
2019-04-22T09:36:50.354Z,1011.70
2019-04-22T09:37:48.275Z,1011.70
2019-04-22T09:39:51.255Z,1011.73
2019-04-22T09:40:46.924Z,1011.70
2019-04-22T09:41:40.090Z,1011.64
2019-04-22T09:42:50.401Z,1011.68
2019-04-22T09:43:53.690Z,1011.69
2019-04-22T09:44:47.622Z,1011.63
2019-04-22T09:45:49.511Z,1011.66
2019-04-22T09:46:48.376Z,1011.61
2019-04-22T09:47:53.849Z,1011.57
2019-04-22T09:48:50.140Z,1011.71
2019-04-22T09:49:53.193Z,1011.61
2019-04-22T09:50:48.197Z,1011.65
2019-04-22T09:51:50.182Z,1011.69
2019-04-22T09:52:51.625Z,1011.70
2019-04-22T09:53:54.158Z,1011.76
2019-04-22T09:54:53.119Z,1011.76
2019-04-22T09:55:43.047Z,1011.74
2019-04-22T09:56:49.274Z,1011.67
2019-04-22T09:57:46.060Z,1011.67
2019-04-22T09:58:53.488Z,1011.65
2019-04-22T09:59:54.432Z,1011.71
2019-04-22T10:00:53.962Z,1011.66
2019-04-22T10:02:03.964Z,1011.70
2019-04-22T10:02:49.043Z,1011.75
2019-04-22T10:03:54.652Z,1011.68
2019-04-22T10:04:52.036Z,1011.65
2019-04-22T10:05:51.835Z,1011.65
2019-04-22T10:06:40.691Z,1011.59
2019-04-22T10:07:50.555Z,1011.66
2019-04-22T10:10:49.136Z,1011.68
2019-04-22T10:11:47.088Z,1011.70
2019-04-22T10:13:52.578Z,1011.61
2019-04-22T10:15:48.132Z,1011.65
2019-04-22T10:17:44.407Z,1011.66
2019-04-22T10:18:46.437Z,1011.57
2019-04-22T10:19:49.409Z,1011.58
2019-04-22T10:20:45.872Z,1011.52
2019-04-22T10:21:57.283Z,1011.51
2019-04-22T10:22:46.399Z,1011.50
2019-04-22T10:23:44.330Z,1011.41
2019-04-22T10:24:44.613Z,1011.37
2019-04-22T10:25:45.992Z,1011.39
2019-04-22T10:26:43.979Z,1011.42
2019-04-22T10:27:51.346Z,1011.37
2019-04-22T10:28:54.138Z,1011.33
2019-04-22T10:30:00.267Z,1011.35
2019-04-22T10:31:46.604Z,1011.35
2019-04-22T10:32:46.225Z,1011.33
2019-04-22T10:33:36.232Z,1011.36
2019-04-22T10:34:32.514Z,1011.43
2019-04-22T10:35:23.629Z,1011.32
2019-04-22T10:36:21.487Z,1011.34
2019-04-22T10:37:23.436Z,1011.34
2019-04-22T10:38:19.494Z,1011.29
2019-04-22T10:39:20.331Z,1011.34
2019-04-22T10:40:19.627Z,1011.30
2019-04-22T10:41:20.719Z,1011.23
2019-04-22T10:42:20.813Z,1011.27
2019-04-22T10:43:19.453Z,1011.41
2019-04-22T10:44:19.460Z,1011.26
2019-04-22T10:45:19.434Z,1011.25
2019-04-22T10:46:19.940Z,1011.17
2019-04-22T10:47:20.087Z,1011.22
2019-04-22T10:48:19.434Z,1011.21
2019-04-22T10:49:20.298Z,1011.26
2019-04-22T10:50:20.614Z,1011.28
2019-04-22T10:51:19.383Z,1011.33
2019-04-22T10:52:19.362Z,1011.32
2019-04-22T10:53:19.816Z,1011.19
2019-04-22T10:54:19.757Z,1011.24
2019-04-22T10:55:19.333Z,1011.19
2019-04-22T10:56:19.331Z,1011.20
2019-04-22T10:57:20.134Z,1011.28
2019-04-22T10:58:20.747Z,1011.28
2019-04-22T10:59:20.626Z,1011.36
2019-04-22T11:00:19.748Z,1011.35
2019-04-22T11:01:19.271Z,1011.34
2019-04-22T11:02:19.294Z,1011.19
2019-04-22T11:03:20.251Z,1011.21
2019-04-22T11:04:19.486Z,1011.17
2019-04-22T11:05:19.935Z,1011.25
2019-04-22T11:06:19.272Z,1011.17
2019-04-22T11:07:24.578Z,1011.20
2019-04-22T11:08:29.773Z,1011.18
2019-04-22T11:09:23.281Z,1011.13
2019-04-22T11:10:35.227Z,1011.04
2019-04-22T11:11:32.652Z,1011.27
2019-04-22T11:12:23.396Z,1011.21
2019-04-22T11:13:20.255Z,1011.23
2019-04-22T11:14:19.166Z,1011.06
2019-04-22T11:15:19.143Z,1011.17
2019-04-22T11:16:19.443Z,1011.17
2019-04-22T11:17:19.550Z,1011.19
2019-04-22T11:18:19.856Z,1011.17
2019-04-22T11:19:19.484Z,1011.15
2019-04-22T11:20:19.846Z,1011.14
2019-04-22T11:21:19.944Z,1011.20
2019-04-22T11:22:25.458Z,1011.09
2019-04-22T11:23:20.612Z,1011.20
2019-04-22T11:24:19.095Z,1011.26
2019-04-22T11:25:19.043Z,1011.15
2019-04-22T11:26:19.870Z,1011.20
2019-04-22T11:27:19.041Z,1011.23
2019-04-22T11:28:19.924Z,1011.12
2019-04-22T11:29:19.580Z,1011.12
2019-04-22T11:30:23.677Z,1011.25
2019-04-22T11:31:20.706Z,1011.17
2019-04-22T11:32:20.238Z,1011.18
2019-04-22T11:33:20.452Z,1011.09
2019-04-22T11:34:19.395Z,1011.04
2019-04-22T11:35:19.529Z,1011.06
2019-04-22T11:36:19.925Z,1011.02
2019-04-22T11:37:18.942Z,1011.10
2019-04-22T11:38:19.127Z,1011.03
2019-04-22T11:39:19.743Z,1011.10
2019-04-22T11:40:25.453Z,1010.98
2019-04-22T11:41:21.461Z,1011.16
2019-04-22T11:42:20.338Z,1010.95
2019-04-22T11:43:19.953Z,1011.01
2019-04-22T11:44:19.166Z,1011.05
2019-04-22T11:45:19.336Z,1010.99
2019-04-22T11:46:18.872Z,1010.95
2019-04-22T11:47:19.292Z,1011.11
2019-04-22T11:48:19.532Z,1011.09
2019-04-22T11:49:18.820Z,1011.00
2019-04-22T11:50:19.900Z,1010.96
2019-04-22T11:51:20.001Z,1010.92
2019-04-22T11:52:20.396Z,1010.99
2019-04-22T11:53:18.778Z,1011.03
2019-04-22T11:54:18.932Z,1010.89
2019-04-22T11:55:19.173Z,1010.94
2019-04-22T11:56:18.918Z,1010.88
2019-04-22T11:57:19.128Z,1010.84
2019-04-22T11:58:19.063Z,1010.82
2019-04-22T11:59:18.758Z,1010.82
2019-04-22T12:00:18.798Z,1010.79
2019-04-22T12:01:19.194Z,1010.78
2019-04-22T12:02:20.044Z,1010.80
2019-04-22T12:03:18.881Z,1010.79
2019-04-22T12:04:20.026Z,1010.89
2019-04-22T12:05:19.625Z,1010.84
2019-04-22T12:06:19.840Z,1010.78
2019-04-22T12:07:19.046Z,1010.92
2019-04-22T12:08:18.657Z,1010.92
2019-04-22T12:09:19.523Z,1010.89
2019-04-22T12:10:29.598Z,1011.01
2019-04-22T12:11:20.654Z,1010.91
2019-04-22T12:12:18.617Z,1010.97
2019-04-22T12:13:19.839Z,1010.93
2019-04-22T12:14:19.992Z,1010.89
2019-04-22T12:15:19.089Z,1010.94
2019-04-22T12:16:19.192Z,1010.85
2019-04-22T12:17:19.976Z,1010.87
2019-04-22T12:18:19.560Z,1010.78
2019-04-22T12:19:19.034Z,1010.79
2019-04-22T12:20:20.210Z,1010.72
2019-04-22T12:21:19.385Z,1010.68
2019-04-22T12:22:18.524Z,1010.67
2019-04-22T12:23:18.968Z,1010.63
2019-04-22T12:24:19.307Z,1010.54
2019-04-22T12:25:33.546Z,1010.63
2019-04-22T12:26:21.003Z,1010.63
2019-04-22T12:27:20.410Z,1010.59
2019-04-22T12:28:19.106Z,1010.70
2019-04-22T12:29:18.432Z,1010.63
2019-04-22T12:30:19.577Z,1010.55
2019-04-22T12:31:19.595Z,1010.61
2019-04-22T12:32:18.634Z,1010.51
2019-04-22T12:33:19.187Z,1010.61
2019-04-22T12:34:19.642Z,1010.58
2019-04-22T12:35:19.686Z,1010.46
2019-04-22T12:36:18.427Z,1010.56
2019-04-22T12:37:27.339Z,1010.52
2019-04-22T12:38:20.319Z,1010.37
2019-04-22T12:39:18.334Z,1010.51
2019-04-22T12:40:31.335Z,1010.49
2019-04-22T12:41:19.707Z,1010.48
2019-04-22T12:42:19.590Z,1010.37
2019-04-22T12:43:20.533Z,1010.38
2019-04-22T12:44:18.294Z,1010.46
2019-04-22T12:45:18.438Z,1010.42
2019-04-22T12:46:18.558Z,1010.34
2019-04-22T12:47:18.280Z,1010.35
2019-04-22T12:48:19.095Z,1010.38
2019-04-22T12:49:18.273Z,1010.28
2019-04-22T12:50:24.070Z,1010.33
2019-04-22T12:51:20.570Z,1010.27
2019-04-22T12:52:26.627Z,1010.25
2019-04-22T12:53:22.609Z,1010.33
2019-04-22T12:54:19.362Z,1010.28
2019-04-22T12:55:19.585Z,1010.21
2019-04-22T12:56:19.369Z,1010.23
2019-04-22T12:57:18.727Z,1010.16
2019-04-22T12:58:18.222Z,1010.13
2019-04-22T12:59:19.298Z,1010.13
2019-04-22T13:00:18.140Z,1010.13
2019-04-22T13:01:19.091Z,1010.09
2019-04-22T13:02:18.804Z,1010.10
2019-04-22T13:03:18.277Z,1010.11
2019-04-22T13:04:21.211Z,1010.10
2019-04-22T13:05:18.563Z,1010.13
2019-04-22T13:06:19.419Z,1010.14
2019-04-22T13:07:18.067Z,1010.21
2019-04-22T13:08:18.135Z,1010.22
2019-04-22T13:09:19.483Z,1010.22
2019-04-22T13:10:18.053Z,1010.16
2019-04-22T13:11:21.664Z,1010.13
2019-04-22T13:12:19.365Z,1010.15
2019-04-22T13:13:18.879Z,1010.11
2019-04-22T13:14:19.180Z,1010.10
2019-04-22T13:15:18.273Z,1010.02
2019-04-22T13:16:18.022Z,1009.94
2019-04-22T13:17:18.962Z,1010.05
2019-04-22T13:18:27.661Z,1010.05
2019-04-22T13:19:20.950Z,1009.97
2019-04-22T13:20:19.847Z,1009.94
2019-04-22T13:21:18.566Z,1009.94
2019-04-22T13:22:19.069Z,1009.96
2019-04-22T13:23:18.188Z,1010.00
2019-04-22T13:24:19.845Z,1009.93
2019-04-22T13:25:17.893Z,1009.89
2019-04-22T13:26:18.997Z,1009.87
2019-04-22T13:27:19.307Z,1009.99
2019-04-22T13:28:19.058Z,1009.96
2019-04-22T13:29:19.298Z,1009.98
2019-04-22T13:30:18.640Z,1010.00
2019-04-22T13:31:20.736Z,1009.95
2019-04-22T13:32:18.668Z,1010.01
2019-04-22T13:33:19.248Z,1009.85
2019-04-22T13:34:26.116Z,1009.84
2019-04-22T13:35:20.241Z,1009.75
2019-04-22T13:36:20.649Z,1009.71
2019-04-22T13:37:19.153Z,1009.71
2019-04-22T13:38:19.001Z,1009.69
2019-04-22T13:39:18.793Z,1009.56
2019-04-22T13:40:19.071Z,1009.59
2019-04-22T13:41:28.866Z,1009.63
2019-04-22T13:42:21.696Z,1009.52
2019-04-22T13:43:18.783Z,1009.44
2019-04-22T13:44:18.962Z,1009.46
2019-04-22T13:45:17.962Z,1009.42
2019-04-22T13:46:17.691Z,1009.40
2019-04-22T13:47:37.405Z,1009.52
2019-04-22T13:48:38.816Z,1009.54
2019-04-22T13:49:51.420Z,1009.61
2019-04-22T13:50:49.434Z,1009.62